Time;durP1;ratioP1;P1;durP2;ratioP2;P2;SDS_P1;SDS_P2;PMS_P1;PMS_P2;Temp;Humidity;BMP_temperature;BMP_pressure;BME280_temperature;BME280_humidity;BME280_pressure;Samples;Min_cycle;Max_cycle;Signal;HPM_P1;HPM_P2
2023/01/14 00:01:26;;;;;;;18.23;10.82;;;;;;;-2.44;83.96;146726.44;5105191;28;20022;-68
2023/01/14 00:03:52;;;;;;;22.00;11.05;;;;;;;-2.31;84.24;146759.47;5102752;28;20040;-66
2023/01/14 00:06:21;;;;;;;21.30;10.57;;;;;;;-2.28;83.02;146767.06;5104767;28;20031;-67
2023/01/14 00:08:46;;;;;;;24.73;11.48;;;;;;;-2.13;83.46;146802.59;5105090;28;20055;-67
2023/01/14 00:11:14;;;;;;;24.80;12.52;;;;;;;-2.35;83.48;146749.31;5104740;28;20027;-67
2023/01/14 00:13:41;;;;;;;20.73;10.80;;;;;;;-2.35;83.91;146748.00;5104697;28;20125;-66
2023/01/14 00:16:11;;;;;;;18.63;11.32;;;;;;;-2.47;84.62;146718.84;5104051;28;20039;-66
2023/01/14 00:18:36;;;;;;;23.35;11.90;;;;;;;-2.35;83.89;146749.31;5087253;28;20028;-67
2023/01/14 00:21:06;;;;;;;26.55;11.18;;;;;;;-2.48;84.42;146717.59;5104796;28;20184;-67
2023/01/14 00:23:33;;;;;;;25.20;12.80;;;;;;;-2.32;84.59;146756.91;5104755;28;20062;-67
2023/01/14 00:26:01;;;;;;;26.65;11.85;;;;;;;-2.23;83.55;146778.47;5103875;28;20030;-67
2023/01/14 00:28:27;;;;;;;26.90;12.60;;;;;;;-2.41;84.11;146734.06;5105107;28;20135;-67
2023/01/14 00:30:52;;;;;;;20.98;11.75;;;;;;;-2.45;84.33;146725.19;5104388;28;20197;-66
2023/01/14 00:33:18;;;;;;;28.70;12.50;;;;;;;-2.28;84.92;146767.06;5104726;28;20032;-66
2023/01/14 00:35:51;;;;;;;28.90;12.98;;;;;;;-2.39;84.39;146739.16;5103780;28;20024;-67
2023/01/14 00:38:17;;;;;;;23.80;12.77;;;;;;;-2.31;85.23;146758.16;5104511;28;20036;-66
2023/01/14 00:40:42;;;;;;;27.83;13.48;;;;;;;-2.24;84.88;146774.69;5104424;28;20343;-66
2023/01/14 00:43:08;;;;;;;28.77;13.50;;;;;;;-2.19;84.44;146787.38;5104292;28;20244;-68
2023/01/14 00:45:33;;;;;;;27.27;12.25;;;;;;;-2.22;84.46;146781.03;5103638;28;20379;-67
2023/01/14 00:47:59;;;;;;;26.80;13.55;;;;;;;-2.29;85.26;146764.53;5104164;28;20224;-67
2023/01/14 00:50:25;;;;;;;29.02;13.60;;;;;;;-2.22;84.54;146779.72;5104507;28;20040;-67
2023/01/14 00:52:50;;;;;;;27.67;14.13;;;;;;;-2.20;85.04;146786.09;5103783;28;20372;-67
2023/01/14 00:55:16;;;;;;;28.73;14.20;;;;;;;-2.06;84.76;146820.34;5085430;28;20016;-67
2023/01/14 00:57:41;;;;;;;31.75;14.25;;;;;;;-2.13;84.14;146803.84;5104336;28;20301;-67
2023/01/14 01:00:07;;;;;;;29.50;14.13;;;;;;;-2.33;84.55;146754.38;5103752;28;20028;-66
2023/01/14 01:02:33;;;;;;;24.40;13.23;;;;;;;-2.30;84.69;146761.97;5104399;28;20027;-66
2023/01/14 01:04:58;;;;;;;24.85;13.23;;;;;;;-2.23;84.71;146777.22;5103185;28;20028;-67
2023/01/14 01:07:24;;;;;;;28.95;13.85;;;;;;;-2.20;85.06;146784.81;5104171;28;20177;-67
2023/01/14 01:09:49;;;;;;;29.08;14.35;;;;;;;-2.10;84.32;146811.44;5104026;28;20219;-66
2023/01/14 01:12:15;;;;;;;26.92;14.13;;;;;;;-2.34;84.43;146751.81;5104042;28;20077;-65
2023/01/14 01:14:40;;;;;;;23.63;13.40;;;;;;;-2.24;84.93;146774.69;5103568;28;20049;-66
2023/01/14 01:17:06;;;;;;;26.83;13.15;;;;;;;-2.16;84.71;146795.00;5103461;28;20051;-67
2023/01/14 01:19:31;;;;;;;31.90;13.02;;;;;;;-2.20;84.26;146786.09;5103947;28;20081;-66
2023/01/14 01:21:57;;;;;;;28.00;13.40;;;;;;;-2.15;84.66;146798.78;5103564;28;20039;-66
2023/01/14 01:24:22;;;;;;;26.50;13.52;;;;;;;-2.18;84.59;146791.19;5103495;28;20051;-65
2023/01/14 01:26:48;;;;;;;25.67;13.35;;;;;;;-2.18;84.09;146791.19;5084776;28;20028;-66
2023/01/14 01:29:14;;;;;;;24.23;13.57;;;;;;;-2.11;84.28;146807.66;5103336;28;20036;-66
2023/01/14 01:31:40;;;;;;;29.42;14.90;;;;;;;-2.09;84.18;146812.75;5103488;28;20034;-68
2023/01/14 01:34:05;;;;;;;35.80;14.80;;;;;;;-2.19;84.47;146788.63;5103545;28;20055;-69
2023/01/14 01:36:31;;;;;;;29.38;13.90;;;;;;;-2.09;83.51;146812.75;5103459;28;20377;-68
2023/01/14 01:38:56;;;;;;;24.05;14.20;;;;;;;-2.12;84.30;146805.16;5103941;28;20028;-68
2023/01/14 01:41:27;;;;;;;29.58;15.15;;;;;;;-2.14;83.41;146801.34;5103527;28;20066;-68
2023/01/14 01:44:01;;;;;;;28.48;13.65;;;;;;;-2.11;84.02;146807.66;5102607;28;20039;-69
2023/01/14 01:46:29;;;;;;;25.75;14.05;;;;;;;-2.15;84.06;146798.78;5103065;28;20296;-67
2023/01/14 01:49:01;;;;;;;27.58;13.52;;;;;;;-2.25;84.41;146773.44;5103435;28;20032;-67
2023/01/14 01:51:28;;;;;;;;;;;;;;;-2.44;85.59;146727.75;5103948;28;20053;-66
2023/01/14 01:53:57;;;;;;;30.52;13.85;;;;;;;-2.44;85.22;146726.44;5102804;28;19912;-66
2023/01/14 01:56:30;;;;;;;24.58;13.80;;;;;;;-2.40;84.83;146736.59;5103112;28;20020;-68
2023/01/14 01:58:57;;;;;;;28.95;14.30;;;;;;;-2.40;84.54;146736.59;5103537;28;20323;-67
2023/01/14 02:01:24;;;;;;;28.95;14.13;;;;;;;-2.41;84.98;146734.06;5103067;28;20028;-67
2023/01/14 02:03:50;;;;;;;27.30;15.55;;;;;;;-2.32;85.10;146755.66;5102756;28;20028;-67
2023/01/14 02:06:16;;;;;;;26.67;14.30;;;;;;;-2.25;85.13;146773.44;5084641;28;20266;-68
2023/01/14 02:08:48;;;;;;;24.58;14.68;;;;;;;-2.40;84.76;146736.59;5103224;28;20028;-66
2023/01/14 02:11:22;;;;;;;;;;;;;;;-2.35;85.23;146749.31;5085402;28;20035;-67
2023/01/14 02:14:15;;;;;;;24.77;14.07;;;;;;;-2.40;85.42;146736.59;5103125;28;19911;-67
2023/01/14 02:17:05;;;;;;;28.40;14.13;;;;;;;-2.38;84.94;146741.72;5088114;28;20028;-67
2023/01/14 02:19:42;;;;;;;25.08;13.52;;;;;;;-2.21;85.43;146783.53;5085055;28;20040;-66
2023/01/14 02:22:45;;;;;;;23.70;13.82;;;;;;;-2.36;85.02;146746.75;5102823;28;20048;-66
2023/01/14 02:25:16;;;;;;;21.95;13.88;;;;;;;-2.31;85.63;146758.16;5084266;28;20262;-66
2023/01/14 02:27:51;;;;;;;;;;;;;;;-2.32;85.28;146755.66;5085575;28;20028;-67
2023/01/14 02:30:16;;;;;;;25.92;13.88;;;;;;;-2.38;84.87;146740.41;5088170;28;19932;-66
2023/01/14 02:32:57;;;;;;;25.25;14.52;;;;;;;-2.53;85.51;146703.63;5102723;28;20039;-68
2023/01/14 02:35:46;;;;;;;23.45;15.45;;;;;;;-2.32;85.83;146756.91;5102558;28;20042;-67
2023/01/14 02:38:35;;;;;;;25.65;15.27;;;;;;;-2.27;85.05;146769.63;5097797;28;20044;-67
2023/01/14 02:41:16;;;;;;;26.60;15.52;;;;;;;-2.26;84.92;146772.13;5106847;28;20338;-65
2023/01/14 02:44:10;;;;;;;25.45;15.68;;;;;;;-2.30;85.99;146761.97;5106244;28;20366;-67
2023/01/14 02:47:00;;;;;;;27.67;16.60;;;;;;;-2.32;85.30;146755.66;5106222;28;20277;-66
2023/01/14 02:49:33;;;;;;;30.15;16.40;;;;;;;-2.51;85.58;146710.00;5105362;28;20032;-66
2023/01/14 02:51:59;;;;;;;26.67;15.93;;;;;;;-2.27;85.79;146769.63;5086931;28;20055;-66
2023/01/14 02:54:25;;;;;;;23.20;15.95;;;;;;;-2.29;85.28;146763.28;5106357;28;20316;-67
2023/01/14 02:56:54;;;;;;;24.42;16.02;;;;;;;-2.29;85.25;146763.28;5106216;28;20203;-68
2023/01/14 03:00:05;;;;;;;29.02;17.27;;;;;;;-2.14;85.30;146801.34;5106705;28;20028;-68
2023/01/14 03:03:04;;;;;;;29.63;17.10;;;;;;;-2.28;86.03;146767.06;5075457;28;20971;-66
2023/01/14 03:06:04;;;;;;;27.63;16.63;;;;;;;-2.20;85.83;146784.81;5105765;28;20251;-67
2023/01/14 03:08:48;;;;;;;25.80;16.75;;;;;;;-2.20;85.99;146786.09;5106530;28;20040;-67
2023/01/14 03:11:14;;;;;;;24.95;16.20;;;;;;;-2.33;86.19;146754.38;5106440;28;20027;-66
2023/01/14 03:13:59;;;;;;;26.88;16.48;;;;;;;-2.36;86.58;146746.75;5106560;28;20027;-67
2023/01/14 03:16:41;;;;;;;22.45;15.32;;;;;;;-2.46;86.53;146722.66;5105851;28;20103;-66
2023/01/14 03:19:12;;;;;;;30.83;16.00;;;;;;;-2.53;86.79;146704.91;5106287;28;20038;-68
2023/01/14 03:21:43;;;;;;;25.70;15.75;;;;;;;-2.44;86.83;146726.44;5106271;28;20245;-68
2023/01/14 03:24:24;;;;;;;19.70;15.17;;;;;;;-2.45;85.93;146723.94;5105698;28;20129;-67
2023/01/14 03:26:54;;;;;;;24.27;15.50;;;;;;;-2.37;86.30;146742.97;5105699;28;20110;-67
2023/01/14 03:29:27;;;;;;;25.55;15.68;;;;;;;-2.34;85.74;146751.81;5105862;28;20038;-67
2023/01/14 03:32:02;;;;;;;23.02;14.82;;;;;;;-2.46;86.63;146721.41;5105538;28;20217;-68
2023/01/14 03:34:36;;;;;;;22.40;15.98;;;;;;;-2.43;85.99;146729.00;5105121;28;20035;-66
2023/01/14 03:37:08;;;;;;;23.95;16.30;;;;;;;-2.28;86.32;146767.06;5105587;28;20066;-67
2023/01/14 03:39:34;;;;;;;22.13;15.77;;;;;;;-2.16;85.92;146795.00;5105788;28;20349;-67
2023/01/14 03:42:18;;;;;;;26.45;17.45;;;;;;;-2.31;86.13;146759.47;5105389;28;20101;-66
2023/01/14 03:44:50;;;;;;;28.48;17.33;;;;;;;-2.27;86.43;146769.63;5105336;28;20063;-67
2023/01/14 03:47:16;;;;;;;28.15;17.50;;;;;;;-2.40;86.20;146736.59;5087422;28;20315;-67
2023/01/14 03:49:42;;;;;;;28.17;16.98;;;;;;;-2.44;87.29;146727.75;5105064;28;20047;-68
2023/01/14 03:52:25;;;;;;;32.83;17.98;;;;;;;-2.32;86.65;146756.91;5105159;28;20043;-67
2023/01/14 03:55:19;;;;;;;33.65;18.75;;;;;;;-2.45;86.70;146725.19;5105289;28;20024;-67
2023/01/14 03:57:48;;;;;;;36.40;19.92;;;;;;;-2.28;87.18;146767.06;5085032;28;20032;-68
2023/01/14 04:00:31;;;;;;;30.58;18.98;;;;;;;-2.34;86.01;146751.81;5103922;28;20388;-67
2023/01/14 04:03:00;;;;;;;37.10;20.88;;;;;;;-2.35;85.92;146748.00;5105276;28;20032;-67
2023/01/14 04:05:25;;;;;;;36.70;18.77;;;;;;;-2.48;86.03;146716.28;5104704;28;20304;-67
2023/01/14 04:07:53;;;;;;;31.42;19.45;;;;;;;-2.52;86.79;146706.13;5104850;28;20024;-67
2023/01/14 04:10:18;;;;;;;32.05;18.90;;;;;;;-2.43;86.46;146729.00;5105275;28;20027;-67
2023/01/14 04:15:28;;;;;;;35.22;19.30;;;;;;;-2.37;87.05;146744.22;5084361;28;20344;-69
2023/01/14 04:17:54;;;;;;;35.58;19.58;;;;;;;-2.43;86.80;146729.00;5100534;28;20023;-67
2023/01/14 04:20:20;;;;;;;30.10;19.58;;;;;;;-2.42;86.80;146731.56;5104928;28;20028;-67
2023/01/14 04:22:45;;;;;;;30.63;17.90;;;;;;;-2.63;86.38;146680.78;5105010;28;20028;-67
2023/01/14 04:25:11;;;;;;;27.98;18.33;;;;;;;-2.58;87.21;146690.94;5104632;28;20031;-66
2023/01/14 04:27:37;;;;;;;30.15;18.95;;;;;;;-2.44;86.14;146727.75;5105139;28;20038;-67
2023/01/14 04:30:05;;;;;;;31.50;17.33;;;;;;;-2.37;86.12;146742.97;5086374;28;20292;-67
2023/01/14 04:32:30;;;;;;;29.70;17.67;;;;;;;-2.43;86.38;146730.25;5104781;28;20023;-68
2023/01/14 04:34:56;;;;;;;28.58;17.35;;;;;;;-2.34;85.84;146750.56;5103780;28;20031;-66
2023/01/14 04:37:21;;;;;;;25.23;16.80;;;;;;;-2.26;85.20;146770.88;5091861;28;20040;-66
2023/01/14 04:39:47;;;;;;;31.60;16.92;;;;;;;-2.41;85.61;146734.06;5104642;28;20031;-65
2023/01/14 04:42:27;;;;;;;25.98;15.35;;;;;;;-2.53;86.15;146704.91;5086173;28;20040;-66
2023/01/14 04:45:01;;;;;;;24.92;15.13;;;;;;;-2.67;86.66;146669.38;5103707;28;20051;-65
2023/01/14 04:47:28;;;;;;;28.88;16.45;;;;;;;-2.58;86.03;146690.94;5104586;28;20107;-67
2023/01/14 04:49:54;;;;;;;30.23;16.48;;;;;;;-2.46;86.16;146721.41;5104129;28;20032;-66
2023/01/14 04:52:20;;;;;;;27.38;16.60;;;;;;;-2.36;85.13;146745.50;5104479;28;20066;-67
2023/01/14 04:54:45;;;;;;;27.38;16.45;;;;;;;-2.54;85.89;146702.34;5104248;28;20373;-67
2023/01/14 04:57:12;;;;;;;24.17;14.75;;;;;;;-2.52;85.75;146706.13;5104120;28;20039;-66
2023/01/14 04:59:37;;;;;;;26.35;16.10;;;;;;;-2.37;85.23;146742.97;5104117;28;20028;-67
2023/01/14 05:02:03;;;;;;;24.35;15.90;;;;;;;-2.33;84.81;146753.13;5103196;28;20039;-67
2023/01/14 05:04:30;;;;;;;26.83;16.75;;;;;;;-2.48;84.86;146716.28;5103944;28;20058;-66
2023/01/14 05:06:57;;;;;;;24.65;15.13;;;;;;;-2.39;85.35;146739.16;5103906;28;20047;-66
2023/01/14 05:09:22;;;;;;;26.83;15.15;;;;;;;-2.36;85.24;146745.50;5085845;28;20102;-67
2023/01/14 05:11:48;;;;;;;23.50;14.95;;;;;;;-2.36;85.36;146746.75;5104402;28;20034;-67
2023/01/14 05:14:13;;;;;;;25.27;14.98;;;;;;;-2.38;85.27;146740.41;5103815;28;20028;-67
2023/01/14 05:16:39;;;;;;;22.20;15.35;;;;;;;-2.30;84.51;146760.72;5103638;28;20091;-67
2023/01/14 05:19:05;;;;;;;22.08;14.30;;;;;;;-2.29;84.86;146764.53;5103630;28;20024;-67
2023/01/14 05:21:30;;;;;;;25.23;15.98;;;;;;;-2.17;84.27;146793.69;5103395;28;20059;-66
2023/01/14 05:23:56;;;;;;;29.42;15.63;;;;;;;-2.35;84.83;146749.31;5103468;28;20101;-68
2023/01/14 05:26:21;;;;;;;22.33;14.35;;;;;;;-2.55;84.97;146699.84;5103353;28;20031;-66
2023/01/14 05:28:47;;;;;;;27.98;16.15;;;;;;;-2.37;84.62;146742.97;5103792;28;20031;-67
2023/01/14 05:31:12;;;;;;;33.72;15.32;;;;;;;-2.33;84.70;146753.13;5103453;28;20023;-67
2023/01/14 05:33:38;;;;;;;28.38;15.88;;;;;;;-2.28;84.63;146767.06;5103553;28;20042;-67
2023/01/14 05:36:05;;;;;;;22.88;14.48;;;;;;;-2.65;85.43;146675.72;5102955;28;20027;-67
2023/01/14 05:38:30;;;;;;;24.77;14.95;;;;;;;-2.43;84.68;146730.25;5103960;28;20036;-67
2023/01/14 05:40:56;;;;;;;23.55;14.77;;;;;;;-2.46;85.57;146721.41;5085443;28;20028;-65
2023/01/14 05:46:23;;;;;;;28.08;14.38;;;;;;;-2.52;85.48;146706.13;5021039;28;20064;-65
2023/01/14 05:48:48;;;;;;;24.35;15.05;;;;;;;-2.34;85.02;146750.56;5070569;28;20091;-65
2023/01/14 05:51:14;;;;;;;24.58;15.00;;;;;;;-2.32;84.21;146756.91;5101270;28;20028;-66
2023/01/14 05:53:40;;;;;;;26.92;15.40;;;;;;;-2.51;85.12;146710.00;5102997;28;20178;-67
2023/01/14 05:56:06;;;;;;;25.45;15.35;;;;;;;-2.49;85.06;146715.03;5103010;28;20316;-66
2023/01/14 05:58:32;;;;;;;28.23;14.68;;;;;;;-2.46;85.03;146721.41;5103455;28;20051;-66
2023/01/14 06:06:37;;;;;;;28.35;14.27;;;;;;;-2.34;85.08;146751.81;5083023;28;20043;-66
2023/01/14 06:09:07;;;;;;;22.40;12.95;;;;;;;-2.44;85.04;146726.44;5099140;28;20055;-65
2023/01/14 06:11:33;;;;;;;22.55;12.90;;;;;;;-2.62;85.96;146683.34;5102835;28;20043;-64
2023/01/14 06:13:59;;;;;;;29.27;14.43;;;;;;;-2.47;85.32;146718.84;5106608;28;20028;-66
2023/01/14 06:16:31;;;;;;;23.27;12.65;;;;;;;-2.56;85.20;146696.03;5107338;28;20073;-66
2023/01/14 06:18:57;;;;;;;26.77;13.10;;;;;;;-2.59;85.92;146689.69;5072333;28;20339;-67
2023/01/14 06:21:29;;;;;;;22.92;12.65;;;;;;;-2.46;86.12;146721.41;5100169;28;20036;-67
2023/01/14 06:23:56;;;;;;;27.30;13.50;;;;;;;-2.63;85.84;146680.78;5098453;28;20372;-67
2023/01/14 06:26:27;;;;;;;25.23;13.23;;;;;;;-2.66;86.86;146673.19;5097561;28;20032;-66
2023/01/14 06:29:01;;;;;;;25.77;13.48;;;;;;;-2.59;86.02;146689.69;5097008;28;20047;-65
2023/01/14 06:31:27;;;;;;;20.48;13.63;;;;;;;-2.54;85.86;146702.34;5096808;28;20084;-65
2023/01/14 06:33:55;;;;;;;21.90;12.50;;;;;;;-2.66;86.36;146671.94;5096685;28;20036;-66
2023/01/14 06:36:21;;;;;;;23.95;12.65;;;;;;;-2.45;85.27;146723.94;5081175;28;20298;-66
2023/01/14 06:38:47;;;;;;;25.58;13.73;;;;;;;-2.28;85.59;146767.06;5080689;28;20027;-66
2023/01/14 06:41:12;;;;;;;24.73;13.50;;;;;;;-2.41;85.78;146734.06;5097091;28;20215;-67
2023/01/14 06:43:41;;;;;;;20.17;13.30;;;;;;;-2.33;84.88;146753.13;5078784;28;20037;-66
2023/01/14 06:46:08;;;;;;;22.73;12.55;;;;;;;-2.33;85.92;146754.38;5058883;28;20224;-67
2023/01/14 06:48:34;;;;;;;29.25;13.63;;;;;;;-2.37;85.42;146744.22;5074865;28;20029;-67
2023/01/14 06:51:07;;;;;;;22.95;12.60;;;;;;;-2.53;85.97;146704.91;5074544;28;20021;-66
2023/01/14 06:53:33;;;;;;;28.08;14.40;;;;;;;-2.33;85.94;146754.38;5077415;28;20067;-67
2023/01/14 06:56:05;;;;;;;28.48;13.82;;;;;;;-2.45;85.37;146723.94;5076038;28;20028;-66
2023/01/14 06:58:32;;;;;;;25.33;13.73;;;;;;;-2.53;86.42;146704.91;5077535;28;20105;-65
2023/01/14 07:00:58;;;;;;;22.00;12.85;;;;;;;-2.39;86.33;146739.16;5077461;28;20035;-66
2023/01/14 07:03:25;;;;;;;21.17;13.23;;;;;;;-2.35;85.25;146749.31;5077504;28;20036;-66
2023/01/14 07:05:50;;;;;;;26.45;13.20;;;;;;;-2.32;85.50;146756.91;5072934;28;20373;-66
2023/01/14 07:08:16;;;;;;;27.25;13.20;;;;;;;-2.53;85.71;146704.91;5077397;28;20032;-66
2023/01/14 07:10:42;;;;;;;25.90;13.43;;;;;;;-2.33;85.84;146754.38;5079835;28;20029;-67
2023/01/14 07:13:08;;;;;;;28.67;13.95;;;;;;;-2.32;85.78;146756.91;5077102;28;20021;-67
2023/01/14 07:15:33;;;;;;;24.38;13.65;;;;;;;-2.45;85.64;146725.19;5082386;28;20044;-68
2023/01/14 07:17:59;;;;;;;21.10;13.13;;;;;;;-2.37;85.41;146744.22;5085940;28;20055;-66
2023/01/14 07:20:24;;;;;;;26.27;13.38;;;;;;;-2.47;85.54;146720.09;5088472;28;20040;-66
2023/01/14 07:22:50;;;;;;;27.55;14.35;;;;;;;-2.40;85.87;146735.34;5100388;28;20035;-65
2023/01/14 07:25:16;;;;;;;21.27;13.05;;;;;;;-2.36;85.25;146745.50;5083752;28;20079;-68
2023/01/14 07:27:42;;;;;;;29.83;14.40;;;;;;;-2.35;85.61;146749.31;5073476;28;20028;-67
2023/01/14 07:30:08;;;;;;;26.40;13.75;;;;;;;-2.41;85.82;146734.06;5085113;28;20264;-67
2023/01/14 07:32:34;;;;;;;20.80;13.50;;;;;;;-2.27;86.07;146768.31;5087224;28;20029;-66
2023/01/14 07:35:00;;;;;;;27.52;13.63;;;;;;;-2.41;85.70;146734.06;5098954;28;20035;-67
2023/01/14 07:37:26;;;;;;;24.25;13.38;;;;;;;-2.40;86.16;146735.34;5084913;28;20025;-67
2023/01/14 07:39:51;;;;;;;28.33;14.57;;;;;;;-2.38;85.43;146740.41;5085520;28;20289;-67
2023/01/14 07:42:17;;;;;;;25.75;12.88;;;;;;;-2.35;85.17;146749.31;5085275;28;20028;-67
2023/01/14 07:44:43;;;;;;;22.73;12.75;;;;;;;-2.32;85.96;146756.91;5103662;28;20048;-68
2023/01/14 07:47:13;;;;;;;19.92;12.35;;;;;;;-2.38;85.75;146741.72;5105227;28;20352;-66
2023/01/14 07:49:40;;;;;;;25.42;13.55;;;;;;;-2.37;85.70;146744.22;5105212;28;20036;-65
2023/01/14 07:52:06;;;;;;;29.27;14.57;;;;;;;-2.42;85.56;146731.56;5105297;28;20193;-67
2023/01/14 07:54:32;;;;;;;26.80;12.85;;;;;;;-2.26;85.50;146772.13;5104804;28;20352;-68
2023/01/14 07:56:58;;;;;;;26.85;12.80;;;;;;;-2.40;85.35;146736.59;5104951;28;20031;-68
2023/01/14 07:59:23;;;;;;;22.65;12.55;;;;;;;-2.35;85.58;146749.31;5105309;28;20277;-68
2023/01/14 08:01:49;;;;;;;26.55;12.93;;;;;;;-2.38;85.58;146741.72;5098916;28;20028;-68
2023/01/14 08:04:14;;;;;;;26.98;13.25;;;;;;;-2.28;85.72;146767.06;5099508;28;20058;-68
2023/01/14 08:06:40;;;;;;;29.40;13.05;;;;;;;-2.17;85.50;146792.44;5081470;28;20047;-68
2023/01/14 08:09:06;;;;;;;21.33;12.27;;;;;;;-2.27;85.63;146769.63;5077621;28;20032;-68
2023/01/14 08:11:33;;;;;;;25.77;13.50;;;;;;;-2.14;85.56;146801.34;5098253;28;20047;-68
2023/01/14 08:13:59;;;;;;;27.25;14.18;;;;;;;-2.05;85.11;146821.59;5106672;28;20058;-68
2023/01/14 08:16:25;;;;;;;24.17;13.15;;;;;;;-2.01;84.37;146833.06;5105303;28;20375;-69
2023/01/14 08:18:50;;;;;;;20.02;12.30;;;;;;;-1.94;84.99;146850.84;5118267;28;20220;-69
2023/01/14 08:21:16;;;;;;;25.25;13.52;;;;;;;-2.10;85.02;146811.44;5095551;28;20047;-69
2023/01/14 08:23:42;;;;;;;27.42;13.27;;;;;;;-2.14;85.34;146801.34;5101294;28;20335;-69
2023/01/14 08:26:11;;;;;;;23.10;12.82;;;;;;;-2.28;85.62;146767.06;5101615;28;20080;-68
2023/01/14 08:28:38;;;;;;;25.90;13.13;;;;;;;-2.26;85.41;146772.13;5098800;28;20254;-69
2023/01/14 08:31:13;;;;;;;27.55;13.27;;;;;;;-2.21;85.44;146782.28;5096382;28;20039;-69
2023/01/14 08:33:40;;;;;;;27.00;12.65;;;;;;;-2.28;85.89;146765.78;5100707;28;20032;-68
2023/01/14 08:36:14;;;;;;;29.75;13.77;;;;;;;-2.08;85.88;146815.31;5094767;28;20372;-69
2023/01/14 08:38:44;;;;;;;25.88;13.02;;;;;;;-2.14;85.38;146801.34;5093384;28;20077;-69
2023/01/14 08:41:12;;;;;;;26.67;12.60;;;;;;;-2.09;85.30;146812.75;5094923;28;20051;-69
2023/01/14 08:43:38;;;;;;;26.80;12.82;;;;;;;-2.12;85.13;146805.16;5097249;28;20343;-69
2023/01/14 08:46:05;;;;;;;25.40;12.77;;;;;;;-2.17;85.75;146792.44;5094335;28;20023;-68
2023/01/14 08:48:31;;;;;;;26.13;12.52;;;;;;;-2.20;85.72;146784.81;5095749;28;20046;-69
2023/01/14 08:51:08;;;;;;;23.70;13.68;;;;;;;-2.23;85.51;146777.22;5093026;28;20032;-70
2023/01/14 08:53:35;;;;;;;32.05;13.20;;;;;;;-2.06;86.18;146820.34;5094818;28;20309;-69
2023/01/14 08:56:02;;;;;;;25.13;13.07;;;;;;;-2.05;85.25;146821.59;5100847;28;20017;-69
2023/01/14 08:58:28;;;;;;;23.15;13.57;;;;;;;-1.97;84.84;146841.94;5094387;28;20039;-69
2023/01/14 09:00:59;;;;;;;30.67;13.50;;;;;;;-2.06;84.95;146820.34;5099758;28;20037;-70
2023/01/14 09:03:27;;;;;;;19.35;13.00;;;;;;;-2.08;85.25;146815.31;5098803;28;20028;-68
2023/01/14 09:05:57;;;;;;;24.08;13.93;;;;;;;-1.87;85.16;146866.03;5099154;28;20023;-70
2023/01/14 09:19:30;;;;;;;27.77;13.40;;;;;;;-1.91;85.13;146857.13;5103773;28;20065;-68
2023/01/14 09:21:56;;;;;;;31.95;14.55;;;;;;;-1.91;85.63;146857.13;5103700;28;20024;-69
2023/01/14 09:24:21;;;;;;;24.33;13.38;;;;;;;-1.88;85.97;146864.78;5103880;28;20027;-68
2023/01/14 09:26:47;;;;;;;22.60;13.13;;;;;;;-1.98;86.33;146840.69;5097910;28;20024;-68
2023/01/14 09:29:12;;;;;;;23.80;13.23;;;;;;;-1.88;85.82;146863.50;5094473;28;20268;-69
2023/01/14 09:31:38;;;;;;;28.58;14.02;;;;;;;-1.86;86.40;146869.84;5092712;28;20032;-68
2023/01/14 09:34:04;;;;;;;28.02;14.38;;;;;;;-1.83;86.12;146876.19;5086020;28;20052;-68
2023/01/14 09:36:29;;;;;;;30.73;14.43;;;;;;;-1.77;85.98;146892.72;5101712;28;20028;-69
2023/01/14 09:38:55;;;;;;;25.95;15.05;;;;;;;-1.80;86.16;146885.06;5103391;28;20027;-68
2023/01/14 09:41:31;;;;;;;26.70;13.18;;;;;;;-2.00;85.56;146835.56;5100382;28;20289;-68
2023/01/14 09:43:57;;;;;;;33.38;14.98;;;;;;;-1.70;86.36;146907.94;5096190;28;20119;-68
2023/01/14 09:46:26;;;;;;;25.45;15.10;;;;;;;-1.79;86.38;146887.63;5091544;28;20046;-67
2023/01/14 09:48:55;;;;;;;27.08;13.60;;;;;;;-1.76;86.96;146893.97;5100105;28;20033;-69
2023/01/14 09:51:39;;;;;;;27.40;14.38;;;;;;;-1.65;85.70;146920.66;5092493;28;20065;-67
2023/01/14 09:54:24;;;;;;;28.17;14.07;;;;;;;-2.10;86.66;146810.19;5094045;28;20056;-68
2023/01/14 09:57:04;;;;;;;28.58;14.90;;;;;;;-1.92;86.43;146855.88;5081630;28;20243;-69
2023/01/14 09:59:45;;;;;;;23.88;13.60;;;;;;;-1.83;86.92;146876.19;5098250;28;20025;-67
2023/01/14 10:02:29;;;;;;;29.58;14.40;;;;;;;-1.85;87.04;146871.09;5098523;28;20036;-68
2023/01/14 10:05:18;;;;;;;24.67;14.07;;;;;;;-1.70;86.64;146907.94;5098734;28;20031;-69
2023/01/14 10:07:44;;;;;;;26.40;13.88;;;;;;;-1.85;86.57;146872.41;5078515;28;20035;-66
2023/01/14 10:10:29;;;;;;;19.50;13.35;;;;;;;-1.97;86.96;146843.19;5092886;28;20036;-68
2023/01/14 10:12:59;;;;;;;31.77;14.48;;;;;;;-1.98;86.53;146839.38;5091630;28;20216;-69
2023/01/14 10:15:27;;;;;;;33.00;13.18;;;;;;;-2.08;87.37;146816.56;5096913;28;20047;-67
2023/01/14 10:17:59;;;;;;;27.95;12.82;;;;;;;-2.05;87.38;146822.91;5091266;28;20089;-66
2023/01/14 10:20:36;;;;;;;28.58;13.70;;;;;;;-1.99;88.26;146838.13;5091367;28;20035;-68
2023/01/14 10:23:16;;;;;;;23.35;12.07;;;;;;;-2.03;87.12;146827.97;5103027;28;20027;-68
2023/01/14 10:25:48;;;;;;;27.30;13.98;;;;;;;-1.96;87.52;146844.47;5102791;28;20232;-70
2023/01/14 10:28:16;;;;;;;29.08;14.27;;;;;;;-1.99;88.50;146838.13;5085756;28;20051;-72
2023/01/14 10:30:42;;;;;;;29.13;13.93;;;;;;;-1.75;88.21;146896.53;5103808;28;20028;-71
2023/01/14 10:33:14;;;;;;;28.25;13.57;;;;;;;-1.86;87.90;146869.84;5102851;28;20115;-70
2023/01/14 10:35:42;;;;;;;26.08;14.25;;;;;;;-1.85;88.17;146871.09;5102936;28;20058;-69
2023/01/14 10:38:15;;;;;;;28.60;13.35;;;;;;;-1.85;87.77;146871.09;5102475;28;20052;-70
2023/01/14 10:40:41;;;;;;;28.17;13.20;;;;;;;-1.82;88.79;146878.75;5079289;28;20213;-70
2023/01/14 10:43:28;;;;;;;25.42;13.57;;;;;;;-2.05;88.93;146821.59;5102919;28;20032;-70
2023/01/14 10:45:54;;;;;;;25.23;13.50;;;;;;;-1.91;89.02;146858.44;5088762;28;20076;-73
2023/01/14 10:48:21;;;;;;;25.63;13.18;;;;;;;-1.95;88.54;146847.03;5086849;28;20032;-72
2023/01/14 10:50:48;;;;;;;29.85;13.95;;;;;;;-1.99;89.90;146838.13;5094319;28;20242;-69
2023/01/14 10:53:22;;;;;;;26.65;13.57;;;;;;;-1.92;89.19;146855.88;5102599;28;20020;-70
2023/01/14 10:55:56;;;;;;;24.35;13.30;;;;;;;-2.04;89.28;146825.41;5103394;28;20020;-70
2023/01/14 10:58:31;;;;;;;26.40;13.68;;;;;;;-1.97;89.66;146843.19;5104152;28;20328;-70
2023/01/14 11:01:08;;;;;;;28.10;14.43;;;;;;;-2.00;89.19;146834.31;5086654;28;20033;-70
2023/01/14 11:03:39;;;;;;;23.80;12.60;;;;;;;-2.00;89.78;146835.56;5103677;28;20039;-71
2023/01/14 11:06:09;;;;;;;25.40;14.30;;;;;;;-2.05;88.93;146822.91;5106579;28;20028;-71
2023/01/14 11:08:40;;;;;;;32.15;13.73;;;;;;;-1.88;90.25;146863.50;5106197;28;20032;-71
2023/01/14 11:11:11;;;;;;;25.58;14.45;;;;;;;-1.77;89.36;146891.41;5083271;28;20220;-70
2023/01/14 11:13:41;;;;;;;24.15;14.38;;;;;;;-1.91;88.53;146858.44;5106674;28;20038;-67
2023/01/14 11:16:29;;;;;;;30.98;14.85;;;;;;;-1.78;89.58;146888.88;5106232;28;20035;-69
2023/01/14 11:19:04;;;;;;;28.58;13.45;;;;;;;-1.86;88.94;146868.59;5085805;28;20028;-70
2023/01/14 11:21:40;;;;;;;28.48;15.02;;;;;;;-1.86;89.71;146869.84;5103154;28;20052;-68
2023/01/14 11:24:21;;;;;;;22.23;12.88;;;;;;;-1.94;89.28;146850.84;5105042;28;20104;-68
2023/01/14 11:26:47;;;;;;;24.48;13.40;;;;;;;-1.87;89.38;146867.28;5106184;28;20027;-68
2023/01/14 11:29:16;;;;;;;27.58;13.93;;;;;;;-2.04;90.25;146825.41;5087910;28;20278;-68
2023/01/14 11:31:42;;;;;;;24.10;12.60;;;;;;;-1.73;90.21;146901.59;5105998;28;20031;-68
2023/01/14 11:34:29;;;;;;;29.50;13.88;;;;;;;-1.82;89.92;146878.75;5105873;28;20054;-68
2023/01/14 11:37:23;;;;;;;27.15;13.93;;;;;;;-1.76;89.70;146895.22;5085637;28;20028;-69
2023/01/14 11:39:57;;;;;;;24.70;13.73;;;;;;;-1.79;90.39;146886.38;5102266;28;20040;-69
2023/01/14 11:42:26;;;;;;;28.20;14.65;;;;;;;-1.79;89.73;146887.63;5106060;28;20073;-70
2023/01/14 11:45:15;;;;;;;25.33;14.18;;;;;;;-1.96;91.16;146845.72;5106329;28;20315;-68